Time;durP1;ratioP1;P1;durP2;ratioP2;P2;SDS_P1;SDS_P2;PMS_P1;PMS_P2;Temp;Humidity;BMP_temperature;BMP_pressure;BME280_temperature;BME280_humidity;BME280_pressure;Samples;Min_cycle;Max_cycle;Signal;HPM_P1;HPM_P2
2021/03/13 00:00:21;;;;;;;;;;;;;;;;;;5085517;28;1959;-60
2021/03/13 00:02:47;;;;;;;;;;;;;;;;;;5069311;28;818;-59
2021/03/13 00:05:13;;;;;;;;;;;;;;;;;;5066338;28;835;-59
2021/03/13 00:07:39;;;;;;;;;;;;;;;;;;5066085;28;950;-59
2021/03/13 00:10:05;;;;;;;;;;;;;;;;;;5065864;28;886;-59
2021/03/13 00:12:30;;;;;;;;;;;;;;;;;;5066015;28;892;-59
2021/03/13 00:14:56;;;;;;;;;;;;;;;;;;5066028;28;867;-59
2021/03/13 00:17:21;;;;;;;;;;;;;;;;;;5065550;28;914;-60
2021/03/13 00:19:46;;;;;;;;;;;;;;;;;;5065373;28;1955;-60
2021/03/13 00:22:12;;;;;;;;;;;;;;;;;;5064737;28;1755;-59
2021/03/13 00:24:37;;;;;;;;;;;;;;;;;;5056509;28;920;-59
2021/03/13 00:27:03;;;;;;;;;;;;;;;;;;5046277;28;1545;-60
2021/03/13 00:29:28;;;;;;;;;;;;;;;;;;5047898;28;906;-60
2021/03/13 00:31:54;;;;;;;;;;;;;;;;;;5045825;28;873;-59
2021/03/13 00:34:21;;;;;;;;;;;;;;;;;;5045921;28;831;-60
2021/03/13 00:36:46;;;;;;;;;;;;;;;;;;5046764;28;1339;-59
2021/03/13 00:39:12;;;;;;;;;;;;;;;;;;5045549;28;1949;-59
2021/03/13 00:41:37;;;;;;;;;;;;;;;;;;5077922;28;1209;-59
2021/03/13 00:44:03;;;;;;;;;;;;;;;;;;5049777;28;1048;-59
2021/03/13 00:46:28;;;;;;;;;;;;;;;;;;5048988;28;898;-59
2021/03/13 00:48:53;;;;;;;;;;;;;;;;;;5049843;28;843;-59
2021/03/13 00:51:19;;;;;;;;;;;;;;;;;;5049483;28;823;-59
2021/03/13 00:53:44;;;;;;;;;;;;;;;;;;5069620;28;1024;-59
2021/03/13 00:56:09;;;;;;;;;;;;;;;;;;5090208;28;655;-59
2021/03/13 00:58:35;;;;;;;;;;;;;;;;;;5089494;28;874;-60
2021/03/13 01:01:00;;;;;;;;;;;;;;;;;;5089058;28;1893;-59
2021/03/13 01:03:25;;;;;;;;;;;;;;;;;;5089497;28;819;-59
2021/03/13 01:05:51;;;;;;;;;;;;;;;;;;5089551;28;815;-60
2021/03/13 01:08:16;;;;;;;;;;;;;;;;;;5090336;28;893;-59
2021/03/13 01:10:41;;;;;;;;;;;;;;;;;;5089506;28;814;-59
2021/03/13 01:13:07;;;;;;;;;;;;;;;;;;5072151;28;1421;-59
2021/03/13 01:15:32;;;;;;;;;;;;;;;;;;5069011;28;807;-59
2021/03/13 01:17:58;;;;;;;;;;;;;;;;;;5050573;28;973;-59
2021/03/13 01:20:24;;;;;;;;;;;;;;;;;;5049478;28;1917;-59
2021/03/13 01:22:50;;;;;;;;;;;;;;;;;;5049050;28;902;-59
2021/03/13 01:25:16;;;;;;;;;;;;;;;;;;5049533;28;891;-59
2021/03/13 01:27:41;;;;;;;;;;;;;;;;;;5054784;28;2414;-59
2021/03/13 01:30:08;;;;;;;;;;;;;;;;;;5071121;28;1009;-59
2021/03/13 01:32:34;;;;;;;;;;;;;;;;;;5050320;28;1084;-59
2021/03/13 01:34:59;;;;;;;;;;;;;;;;;;5067342;28;1096;-59
2021/03/13 01:37:25;;;;;;;;;;;;;;;;;;5068731;28;787;-59
2021/03/13 01:39:50;;;;;;;;;;;;;;;;;;5068553;28;1894;-59
2021/03/13 01:42:16;;;;;;;;;;;;;;;;;;5067786;28;1006;-59
2021/03/13 01:44:41;;;;;;;;;;;;;;;;;;5071100;28;1030;-59
2021/03/13 01:47:12;;;;;;;;;;;;;;;;;;5068054;28;1076;-59
2021/03/13 01:49:37;;;;;;;;;;;;;;;;;;5067968;28;808;-59
2021/03/13 01:52:03;;;;;;;;;;;;;;;;;;5068300;28;1094;-59
2021/03/13 01:54:28;;;;;;;;;;;;;;;;;;5067604;28;1079;-59
2021/03/13 01:56:54;;;;;;;;;;;;;;;;;;5068319;28;962;-59
2021/03/13 01:59:19;;;;;;;;;;;;;;;;;;5068395;28;1997;-60
2021/03/13 02:01:45;;;;;;;;;;;;;;;;;;5064425;28;1407;-59
2021/03/13 02:04:12;;;;;;;;;;;;;;;;;;5063255;28;929;-59
2021/03/13 02:06:37;;;;;;;;;;;;;;;;;;5047627;28;834;-60
2021/03/13 02:09:41;;;;;;;;;;;;;;;;;;5047766;28;851;-59
2021/03/13 02:12:15;;;;;;;;;;;;;;;;;;5005022;28;1147;-59
2021/03/13 02:14:52;;;;;;;;;;;;;;;;;;5004844;28;1203;-59
2021/03/13 02:17:35;;;;;;;;;;;;;;;;;;5019327;28;1204;-59
2021/03/13 02:20:19;;;;;;;;;;;;;;;;;;5027603;28;1902;-59
2021/03/13 02:22:47;;;;;;;;;;;;;;;;;;5028499;28;915;-59
2021/03/13 02:25:28;;;;;;;;;;;;;;;;;;5028258;28;883;-59
2021/03/13 02:28:00;;;;;;;;;;;;;;;;;;5028710;28;1022;-59
2021/03/13 02:30:27;;;;;;;;;;;;;;;;;;5050012;28;977;-60
2021/03/13 02:33:11;;;;;;;;;;;;;;;;;;5047582;28;879;-60
2021/03/13 02:35:59;;;;;;;;;;;;;;;;;;5047330;28;878;-59
2021/03/13 02:38:45;;;;;;;;;;;;;;;;;;5038563;28;1952;-60
2021/03/13 02:41:15;;;;;;;;;;;;;;;;;;5046054;28;1906;-59
2021/03/13 02:43:43;;;;;;;;;;;;;;;;;;5046650;28;898;-59
2021/03/13 02:46:10;;;;;;;;;;;;;;;;;;5046568;28;895;-60
2021/03/13 02:48:36;;;;;;;;;;;;;;;;;;5044593;28;1423;-59
2021/03/13 02:51:02;;;;;;;;;;;;;;;;;;5046386;28;1073;-60
2021/03/13 02:53:28;;;;;;;;;;;;;;;;;;5041336;28;1005;-59
2021/03/13 02:55:54;;;;;;;;;;;;;;;;;;5066122;28;823;-59
2021/03/13 02:58:21;;;;;;;;;;;;;;;;;;5066607;28;808;-60
2021/03/13 03:00:47;;;;;;;;;;;;;;;;;;5086265;28;1894;-59
2021/03/13 03:03:15;;;;;;;;;;;;;;;;;;5087204;28;851;-59
2021/03/13 03:05:41;;;;;;;;;;;;;;;;;;5074813;28;941;-59
2021/03/13 03:08:07;;;;;;;;;;;;;;;;;;5066539;28;977;-59
2021/03/13 03:10:35;;;;;;;;;;;;;;;;;;5066626;28;851;-59
2021/03/13 03:13:01;;;;;;;;;;;;;;;;;;5066825;28;858;-60
2021/03/13 03:15:28;;;;;;;;;;;;;;;;;;5066393;28;910;-59
2021/03/13 03:17:55;;;;;;;;;;;;;;;;;;5066979;28;865;-60
2021/03/13 03:20:21;;;;;;;;;;;;;;;;;;5066594;28;1910;-59
2021/03/13 03:22:46;;;;;;;;;;;;;;;;;;5056152;28;1508;-59
2021/03/13 03:25:12;;;;;;;;;;;;;;;;;;5046774;28;731;-59
2021/03/13 03:27:50;;;;;;;;;;;;;;;;;;5046367;28;815;-59
2021/03/13 03:30:17;;;;;;;;;;;;;;;;;;5048014;28;1053;-59
2021/03/13 03:32:43;;;;;;;;;;;;;;;;;;5048180;28;843;-59
2021/03/13 03:35:09;;;;;;;;;;;;;;;;;;5046310;28;859;-59
2021/03/13 03:37:35;;;;;;;;;;;;;;;;;;5046085;28;969;-59
2021/03/13 03:40:00;;;;;;;;;;;;;;;;;;5046275;28;1979;-59
2021/03/13 03:42:26;;;;;;;;;;;;;;;;;;5048095;28;1015;-59
2021/03/13 03:44:53;;;;;;;;;;;;;;;;;;5068120;28;1141;-59
2021/03/13 03:47:19;;;;;;;;;;;;;;;;;;5066267;28;878;-60
2021/03/13 03:49:45;;;;;;;;;;;;;;;;;;5066847;28;949;-59
2021/03/13 03:52:12;;;;;;;;;;;;;;;;;;5060056;28;839;-59
2021/03/13 03:54:38;;;;;;;;;;;;;;;;;;5080227;28;1091;-59
2021/03/13 03:57:06;;;;;;;;;;;;;;;;;;5086921;28;917;-59
2021/03/13 03:59:32;;;;;;;;;;;;;;;;;;5086538;28;1960;-59
2021/03/13 04:01:58;;;;;;;;;;;;;;;;;;5086208;28;818;-59
2021/03/13 04:04:24;;;;;;;;;;;;;;;;;;5085331;28;945;-59
2021/03/13 04:06:50;;;;;;;;;;;;;;;;;;5066362;28;894;-59
2021/03/13 04:09:19;;;;;;;;;;;;;;;;;;5066797;28;863;-59
2021/03/13 04:11:45;;;;;;;;;;;;;;;;;;5066986;28;752;-59
2021/03/13 04:14:11;;;;;;;;;;;;;;;;;;5066201;28;978;-59
2021/03/13 04:16:37;;;;;;;;;;;;;;;;;;5068156;28;882;-59
2021/03/13 04:19:02;;;;;;;;;;;;;;;;;;5070510;28;858;-59
2021/03/13 04:21:28;;;;;;;;;;;;;;;;;;5053878;28;1957;-59
2021/03/13 04:23:54;;;;;;;;;;;;;;;;;;5050537;28;1044;-59
2021/03/13 04:26:21;;;;;;;;;;;;;;;;;;5050048;28;715;-60
2021/03/13 04:28:47;;;;;;;;;;;;;;;;;;5050666;28;986;-59
2021/03/13 04:31:12;;;;;;;;;;;;;;;;;;5050854;28;918;-59
2021/03/13 04:33:38;;;;;;;;;;;;;;;;;;5050987;28;815;-60
2021/03/13 04:36:04;;;;;;;;;;;;;;;;;;5049194;28;1100;-60
2021/03/13 04:38:30;;;;;;;;;;;;;;;;;;5048778;28;929;-60
2021/03/13 04:40:56;;;;;;;;;;;;;;;;;;5049326;28;1925;-60
2021/03/13 04:43:23;;;;;;;;;;;;;;;;;;5049199;28;875;-60
2021/03/13 04:45:48;;;;;;;;;;;;;;;;;;5048670;28;827;-61
2021/03/13 04:48:14;;;;;;;;;;;;;;;;;;5050010;28;827;-60
2021/03/13 04:50:40;;;;;;;;;;;;;;;;;;5049668;28;863;-60
2021/03/13 04:53:05;;;;;;;;;;;;;;;;;;5057441;28;1157;-60
2021/03/13 04:55:31;;;;;;;;;;;;;;;;;;5089682;28;803;-60
2021/03/13 04:57:56;;;;;;;;;;;;;;;;;;5089599;28;838;-60
2021/03/13 05:00:22;;;;;;;;;;;;;;;;;;5088981;28;1909;-60
2021/03/13 05:02:48;;;;;;;;;;;;;;;;;;5084012;28;1378;-60
2021/03/13 05:05:14;;;;;;;;;;;;;;;;;;5058028;28;970;-60
2021/03/13 05:07:39;;;;;;;;;;;;;;;;;;5069102;28;831;-60
2021/03/13 05:10:05;;;;;;;;;;;;;;;;;;5068690;28;857;-60
2021/03/13 05:12:31;;;;;;;;;;;;;;;;;;5067930;28;902;-61
2021/03/13 05:14:56;;;;;;;;;;;;;;;;;;5069238;28;839;-60
2021/03/13 05:17:22;;;;;;;;;;;;;;;;;;5068407;28;1669;-61
2021/03/13 05:19:47;;;;;;;;;;;;;;;;;;5069469;28;1894;-60
2021/03/13 05:22:12;;;;;;;;;;;;;;;;;;5068677;28;898;-60
2021/03/13 05:24:38;;;;;;;;;;;;;;;;;;5067994;28;843;-60
2021/03/13 05:27:03;;;;;;;;;;;;;;;;;;5069073;28;890;-60
2021/03/13 05:29:29;;;;;;;;;;;;;;;;;;5068504;28;873;-60
2021/03/13 05:31:54;;;;;;;;;;;;;;;;;;5065664;28;1484;-60
2021/03/13 05:34:19;;;;;;;;;;;;;;;;;;5070003;28;1053;-61
2021/03/13 05:36:45;;;;;;;;;;;;;;;;;;5049493;28;851;-60
2021/03/13 05:39:10;;;;;;;;;;;;;;;;;;5047410;28;917;-60
2021/03/13 05:41:36;;;;;;;;;;;;;;;;;;5048418;28;1953;-60
2021/03/13 05:44:03;;;;;;;;;;;;;;;;;;5047519;28;862;-60
2021/03/13 05:46:38;;;;;;;;;;;;;;;;;;5047922;28;950;-60
2021/03/13 05:49:05;;;;;;;;;;;;;;;;;;5066106;28;1003;-60
2021/03/13 05:51:33;;;;;;;;;;;;;;;;;;5068618;28;871;-60
2021/03/13 05:53:59;;;;;;;;;;;;;;;;;;5079385;28;984;-60
2021/03/13 05:56:24;;;;;;;;;;;;;;;;;;5086887;28;1359;-60
2021/03/13 05:58:50;;;;;;;;;;;;;;;;;;5066764;28;1001;-60
2021/03/13 06:01:15;;;;;;;;;;;;;;;;;;5059207;28;1966;-60
2021/03/13 06:03:40;;;;;;;;;;;;;;;;;;5047762;28;832;-60
2021/03/13 06:06:07;;;;;;;;;;;;;;;;;;5062523;28;934;-60
2021/03/13 06:08:35;;;;;;;;;;;;;;;;;;5067174;28;969;-60
2021/03/13 06:11:00;;;;;;;;;;;;;;;;;;5067352;28;882;-60
2021/03/13 06:13:26;;;;;;;;;;;;;;;;;;5067542;28;879;-60
2021/03/13 06:15:53;;;;;;;;;;;;;;;;;;5067238;28;1092;-60
2021/03/13 06:18:19;;;;;;;;;;;;;;;;;;5048296;28;962;-61
2021/03/13 06:20:44;;;;;;;;;;;;;;;;;;5060019;28;1889;-60
2021/03/13 06:23:09;;;;;;;;;;;;;;;;;;5062461;28;1500;-60
2021/03/13 06:25:37;;;;;;;;;;;;;;;;;;5059528;28;874;-60
2021/03/13 06:28:07;;;;;;;;;;;;;;;;;;5048830;28;855;-60
2021/03/13 06:30:35;;;;;;;;;;;;;;;;;;5047568;28;862;-60
2021/03/13 06:33:00;;;;;;;;;;;;;;;;;;5058919;28;1112;-60
2021/03/13 06:35:30;;;;;;;;;;;;;;;;;;5066845;28;807;-60
2021/03/13 06:37:56;;;;;;;;;;;;;;;;;;5066644;28;905;-60
2021/03/13 06:40:25;;;;;;;;;;;;;;;;;;5065995;28;1964;-61
2021/03/13 06:42:50;;;;;;;;;;;;;;;;;;5067230;28;981;-60
2021/03/13 06:45:18;;;;;;;;;;;;;;;;;;5068026;28;815;-60
2021/03/13 06:47:44;;;;;;;;;;;;;;;;;;5077709;28;1197;-60
2021/03/13 06:50:19;;;;;;;;;;;;;;;;;;5084813;28;1102;-60
2021/03/13 06:52:49;;;;;;;;;;;;;;;;;;5084339;28;1248;-60
2021/03/13 06:55:16;;;;;;;;;;;;;;;;;;5068593;28;1158;-60
2021/03/13 06:57:41;;;;;;;;;;;;;;;;;;5067542;28;1098;-60
2021/03/13 07:00:07;;;;;;;;;;;;;;;;;;5066336;28;1906;-60
2021/03/13 07:02:33;;;;;;;;;;;;;;;;;;5066598;28;1206;-60
2021/03/13 07:05:07;;;;;;;;;;;;;;;;;;5061408;28;937;-60
2021/03/13 07:07:33;;;;;;;;;;;;;;;;;;5046001;28;1888;-60
2021/03/13 07:10:00;;;;;;;;;;;;;;;;;;5027239;28;811;-60
2021/03/13 07:12:25;;;;;;;;;;;;;;;;;;5026977;28;847;-60
2021/03/13 07:14:51;;;;;;;;;;;;;;;;;;5048388;28;1052;-60
2021/03/13 07:17:17;;;;;;;;;;;;;;;;;;5057960;28;930;-60
2021/03/13 07:19:42;;;;;;;;;;;;;;;;;;5066571;28;1886;-60
2021/03/13 07:22:10;;;;;;;;;;;;;;;;;;5066733;28;996;-60
2021/03/13 07:24:35;;;;;;;;;;;;;;;;;;5066648;28;811;-60
2021/03/13 07:27:01;;;;;;;;;;;;;;;;;;5066287;28;859;-60
2021/03/13 07:29:27;;;;;;;;;;;;;;;;;;5066458;28;854;-60
2021/03/13 07:32:01;;;;;;;;;;;;;;;;;;5065264;28;854;-60
2021/03/13 07:34:31;;;;;;;;;;;;;;;;;;5046138;28;872;-60
2021/03/13 07:36:57;;;;;;;;;;;;;;;;;;5046631;28;914;-60
2021/03/13 07:39:25;;;;;;;;;;;;;;;;;;5028757;28;1894;-60
2021/03/13 07:42:00;;;;;;;;;;;;;;;;;;5046382;28;847;-60
2021/03/13 07:44:25;;;;;;;;;;;;;;;;;;5045677;28;1281;-60
2021/03/13 07:46:51;;;;;;;;;;;;;;;;;;5045013;28;946;-60
2021/03/13 07:49:17;;;;;;;;;;;;;;;;;;5027159;28;862;-60
2021/03/13 07:51:45;;;;;;;;;;;;;;;;;;5026430;28;861;-60
2021/03/13 07:54:11;;;;;;;;;;;;;;;;;;5046217;28;1083;-60
2021/03/13 07:56:41;;;;;;;;;;;;;;;;;;5046492;28;866;-60
2021/03/13 07:59:10;;;;;;;;;;;;;;;;;;5066772;28;1074;-60
2021/03/13 08:01:50;;;;;;;;;;;;;;;;;;5086418;28;1918;-60
2021/03/13 08:04:34;;;;;;;;;;;;;;;;;;5086970;28;819;-60
2021/03/13 08:06:59;;;;;;;;;;;;;;;;;;5046131;28;823;-60
2021/03/13 08:09:25;;;;;;;;;;;;;;;;;;5046412;28;803;-61
2021/03/13 08:11:50;;;;;;;;;;;;;;;;;;5052649;28;835;-60
2021/03/13 08:14:29;;;;;;;;;;;;;;;;;;5067278;28;1094;-60
2021/03/13 08:17:04;;;;;;;;;;;;;;;;;;5065160;28;839;-60
2021/03/13 08:19:33;;;;;;;;;;;;;;;;;;5065662;28;1894;-60
2021/03/13 08:22:15;;;;;;;;;;;;;;;;;;5065913;28;728;-60
2021/03/13 08:24:46;;;;;;;;;;;;;;;;;;5065991;28;914;-61
2021/03/13 08:27:12;;;;;;;;;;;;;;;;;;5065582;28;919;-60
2021/03/13 08:29:47;;;;;;;;;;;;;;;;;;5065426;28;827;-60
2021/03/13 08:32:13;;;;;;;;;;;;;;;;;;5065567;28;895;-60
2021/03/13 08:34:39;;;;;;;;;;;;;;;;;;5065223;28;1170;-59
2021/03/13 08:37:15;;;;;;;;;;;;;;;;;;5062207;28;1464;-59
2021/03/13 08:39:40;;;;;;;;;;;;;;;;;;5063341;28;1910;-60
2021/03/13 08:42:05;;;;;;;;;;;;;;;;;;5063708;28;1173;-60
2021/03/13 08:44:32;;;;;;;;;;;;;;;;;;5060377;28;1827;-60
2021/03/13 08:46:58;;;;;;;;;;;;;;;;;;5068345;28;1559;-60
2021/03/13 08:49:27;;;;;;;;;;;;;;;;;;5072534;28;1627;-60
2021/03/13 08:52:04;;;;;;;;;;;;;;;;;;5065490;28;1095;-60
2021/03/13 08:54:46;;;;;;;;;;;;;;;;;;5076975;28;1000;-60
2021/03/13 08:57:12;;;;;;;;;;;;;;;;;;5085466;28;988;-60
2021/03/13 08:59:41;;;;;;;;;;;;;;;;;;5085398;28;1960;-60
2021/03/13 09:02:08;;;;;;;;;;;;;;;;;;5073179;28;1619;-60
2021/03/13 09:04:34;;;;;;;;;;;;;;;;;;5067467;28;1146;-61
2021/03/13 09:07:01;;;;;;;;;;;;;;;;;;5060508;28;1491;-61
2021/03/13 09:09:28;;;;;;;;;;;;;;;;;;5071684;28;1156;-61
2021/03/13 09:11:54;;;;;;;;;;;;;;;;;;5073208;28;1213;-61
2021/03/13 09:14:24;;;;;;;;;;;;;;;;;;5080211;28;1163;-61
2021/03/13 09:16:50;;;;;;;;;;;;;;;;;;5078469;28;1177;-61
2021/03/13 09:19:15;;;;;;;;;;;;;;;;;;5069631;28;1843;-60
2021/03/13 09:21:42;;;;;;;;;;;;;;;;;;5079811;28;1970;-60
2021/03/13 09:24:09;;;;;;;;;;;;;;;;;;5089199;28;851;-61
2021/03/13 09:26:34;;;;;;;;;;;;;;;;;;5089221;28;859;-60
2021/03/13 09:28:59;;;;;;;;;;;;;;;;;;5088687;28;882;-60
2021/03/13 09:31:25;;;;;;;;;;;;;;;;;;5088209;28;941;-60
2021/03/13 09:33:50;;;;;;;;;;;;;;;;;;5088881;28;894;-61
2021/03/13 09:36:16;;;;;;;;;;;;;;;;;;5085072;28;1457;-61
2021/03/13 09:38:57;;;;;;;;;;;;;;;;;;5068135;28;890;-60
2021/03/13 09:41:22;;;;;;;;;;;;;;;;;;5048992;28;1914;-61
2021/03/13 09:43:48;;;;;;;;;;;;;;;;;;5058502;28;1132;-60
2021/03/13 09:46:17;;;;;;;;;;;;;;;;;;5067904;28;882;-60
2021/03/13 09:48:43;;;;;;;;;;;;;;;;;;5068770;28;752;-60
2021/03/13 09:51:09;;;;;;;;;;;;;;;;;;5068483;28;1020;-60
2021/03/13 09:53:36;;;;;;;;;;;;;;;;;;5069793;28;1829;-60
2021/03/13 09:56:01;;;;;;;;;;;;;;;;;;5087380;28;1017;-60
2021/03/13 09:58:26;;;;;;;;;;;;;;;;;;5088545;28;965;-60
2021/03/13 10:00:52;;;;;;;;;;;;;;;;;;5088522;28;1902;-61
2021/03/13 10:03:17;;;;;;;;;;;;;;;;;;5085543;28;1213;-61
2021/03/13 10:05:43;;;;;;;;;;;;;;;;;;5076478;28;985;-60
2021/03/13 10:08:12;;;;;;;;;;;;;;;;;;5068618;28;878;-60
2021/03/13 10:10:39;;;;;;;;;;;;;;;;;;5068738;28;811;-60
2021/03/13 10:13:05;;;;;;;;;;;;;;;;;;5068332;28;859;-61
2021/03/13 10:15:31;;;;;;;;;;;;;;;;;;5067862;28;894;-61
2021/03/13 10:18:01;;;;;;;;;;;;;;;;;;5064936;28;1568;-60
2021/03/13 10:20:31;;;;;;;;;;;;;;;;;;5047851;28;1894;-60
2021/03/13 10:23:02;;;;;;;;;;;;;;;;;;5046913;28;799;-60
2021/03/13 10:25:27;;;;;;;;;;;;;;;;;;5055333;28;1407;-60
2021/03/13 10:27:53;;;;;;;;;;;;;;;;;;5069130;28;1228;-60
2021/03/13 10:30:25;;;;;;;;;;;;;;;;;;5077521;28;1115;-60
2021/03/13 10:32:50;;;;;;;;;;;;;;;;;;5073574;28;1146;-60
2021/03/13 10:35:20;;;;;;;;;;;;;;;;;;5085793;28;1214;-58
2021/03/13 10:37:46;;;;;;;;;;;;;;;;;;5088188;28;940;-60
2021/03/13 10:40:27;;;;;;;;;;;;;;;;;;5077691;28;1898;-60
2021/03/13 10:42:52;;;;;;;;;;;;;;;;;;5070683;28;1353;-61
2021/03/13 10:45:19;;;;;;;;;;;;;;;;;;5068898;28;1225;-60
2021/03/13 10:47:45;;;;;;;;;;;;;;;;;;5068363;28;877;-60
2021/03/13 10:50:11;;;;;;;;;;;;;;;;;;5067578;28;907;-60
2021/03/13 10:52:38;;;;;;;;;;;;;;;;;;5074392;28;1479;-61
2021/03/13 10:55:04;;;;;;;;;;;;;;;;;;5087161;28;870;-61
2021/03/13 10:57:29;;;;;;;;;;;;;;;;;;5083443;28;1166;-61
2021/03/13 10:59:54;;;;;;;;;;;;;;;;;;5070487;28;1906;-60
2021/03/13 11:02:20;;;;;;;;;;;;;;;;;;5066168;28;1230;-60
2021/03/13 11:04:45;;;;;;;;;;;;;;;;;;5063207;28;1410;-60
2021/03/13 11:07:11;;;;;;;;;;;;;;;;;;5027027;28;962;-60
2021/03/13 11:09:36;;;;;;;;;;;;;;;;;;5029303;28;1129;-60
2021/03/13 11:12:01;;;;;;;;;;;;;;;;;;5064287;28;1148;-60
2021/03/13 11:14:27;;;;;;;;;;;;;;;;;;5060755;28;1140;-60
2021/03/13 11:16:52;;;;;;;;;;;;;;;;;;5066349;28;826;-61
2021/03/13 11:19:18;;;;;;;;;;;;;;;;;;5066824;28;925;-60
2021/03/13 11:21:43;;;;;;;;;;;;;;;;;;5060922;28;1906;-60
2021/03/13 11:24:09;;;;;;;;;;;;;;;;;;5061462;28;847;-60
2021/03/13 11:26:34;;;;;;;;;;;;;;;;;;5045599;28;1010;-61
2021/03/13 11:29:00;;;;;;;;;;;;;;;;;;5046446;28;894;-60
2021/03/13 11:31:25;;;;;;;;;;;;;;;;;;5046305;28;816;-60
2021/03/13 11:33:51;;;;;;;;;;;;;;;;;;5045948;28;839;-61
2021/03/13 11:36:16;;;;;;;;;;;;;;;;;;5046642;28;1227;-60
2021/03/13 11:38:42;;;;;;;;;;;;;;;;;;5059959;28;1292;-60
2021/03/13 11:41:09;;;;;;;;;;;;;;;;;;5066011;28;1961;-60
2021/03/13 11:43:38;;;;;;;;;;;;;;;;;;5060238;28;1068;-60
2021/03/13 11:46:03;;;;;;;;;;;;;;;;;;5046089;28;871;-60
2021/03/13 11:48:29;;;;;;;;;;;;;;;;;;5037009;28;1137;-60
2021/03/13 11:50:54;;;;;;;;;;;;;;;;;;5026052;28;864;-60
2021/03/13 11:53:19;;;;;;;;;;;;;;;;;;5041043;28;1696;-61
2021/03/13 11:55:46;;;;;;;;;;;;;;;;;;5048386;28;1069;-60
2021/03/13 11:58:11;;;;;;;;;;;;;;;;;;5038726;28;1630;-60
2021/03/13 12:00:37;;;;;;;;;;;;;;;;;;5043160;28;1961;-60
2021/03/13 12:03:03;;;;;;;;;;;;;;;;;;5063637;28;851;-60
2021/03/13 12:05:28;;;;;;;;;;;;;;;;;;5065424;28;1092;-60
2021/03/13 12:07:54;;;;;;;;;;;;;;;;;;5058664;28;815;-60
2021/03/13 12:10:19;;;;;;;;;;;;;;;;;;5045861;28;927;-61
2021/03/13 12:12:45;;;;;;;;;;;;;;;;;;5046539;28;827;-60
2021/03/13 12:15:11;;;;;;;;;;;;;;;;;;5045844;28;907;-60
2021/03/13 12:17:36;;;;;;;;;;;;;;;;;;5059152;28;1207;-60
2021/03/13 12:20:05;;;;;;;;;;;;;;;;;;5048431;28;1893;-60
2021/03/13 12:22:30;;;;;;;;;;;;;;;;;;5065886;28;1005;-60
2021/03/13 12:24:55;;;;;;;;;;;;;;;;;;5065862;28;871;-60
2021/03/13 12:27:21;;;;;;;;;;;;;;;;;;5065502;28;827;-60
2021/03/13 12:29:46;;;;;;;;;;;;;;;;;;5066317;28;831;-60
2021/03/13 12:32:12;;;;;;;;;;;;;;;;;;5065561;28;911;-60
2021/03/13 12:34:37;;;;;;;;;;;;;;;;;;5065369;28;851;-60
2021/03/13 12:37:03;;;;;;;;;;;;;;;;;;5047937;28;905;-60
2021/03/13 12:39:28;;;;;;;;;;;;;;;;;;5049973;28;874;-60
2021/03/13 12:41:54;;;;;;;;;;;;;;;;;;5049633;28;1959;-60
2021/03/13 12:44:19;;;;;;;;;;;;;;;;;;5050295;28;969;-61
2021/03/13 12:46:45;;;;;;;;;;;;;;;;;;5060741;28;807;-61
2021/03/13 12:49:10;;;;;;;;;;;;;;;;;;5069931;28;834;-61
2021/03/13 12:51:36;;;;;;;;;;;;;;;;;;5069686;28;823;-60
2021/03/13 12:54:02;;;;;;;;;;;;;;;;;;5081224;28;1153;-61
2021/03/13 12:56:27;;;;;;;;;;;;;;;;;;5089792;28;865;-61
2021/03/13 12:58:52;;;;;;;;;;;;;;;;;;5073772;28;995;-60
2021/03/13 13:01:18;;;;;;;;;;;;;;;;;;5069506;28;1983;-60
2021/03/13 13:03:43;;;;;;;;;;;;;;;;;;5068978;28;831;-60
2021/03/13 13:06:12;;;;;;;;;;;;;;;;;;5068239;28;958;-58
2021/03/13 13:08:37;;;;;;;;;;;;;;;;;;5068935;28;930;-60
2021/03/13 13:11:02;;;;;;;;;;;;;;;;;;5065281;28;2555;-60
2021/03/13 13:13:28;;;;;;;;;;;;;;;;;;5059905;28;925;-60
2021/03/13 13:15:58;;;;;;;;;;;;;;;;;;5068639;28;843;-59
2021/03/13 13:18:24;;;;;;;;;;;;;;;;;;5068529;28;1215;-60
2021/03/13 13:20:50;;;;;;;;;;;;;;;;;;5068333;28;1882;-60
2021/03/13 13:23:15;;;;;;;;;;;;;;;;;;5068391;28;1382;-60
2021/03/13 13:25:42;;;;;;;;;;;;;;;;;;5068698;28;823;-60
2021/03/13 13:28:07;;;;;;;;;;;;;;;;;;5068690;28;836;-60
2021/03/13 13:30:33;;;;;;;;;;;;;;;;;;5074925;28;1329;-59
2021/03/13 13:32:58;;;;;;;;;;;;;;;;;;5081181;28;1281;-60
2021/03/13 13:35:24;;;;;;;;;;;;;;;;;;5088389;28;854;-59
2021/03/13 13:37:51;;;;;;;;;;;;;;;;;;5082548;28;1154;-60
2021/03/13 13:40:17;;;;;;;;;;;;;;;;;;5071074;28;1890;-59
2021/03/13 13:42:43;;;;;;;;;;;;;;;;;;5068406;28;1966;-59
2021/03/13 13:45:10;;;;;;;;;;;;;;;;;;5048937;28;882;-59
2021/03/13 13:47:35;;;;;;;;;;;;;;;;;;5064107;28;871;-60
2021/03/13 13:50:01;;;;;;;;;;;;;;;;;;5062200;28;1031;-60
2021/03/13 13:52:26;;;;;;;;;;;;;;;;;;5085726;28;1146;-60
2021/03/13 13:54:52;;;;;;;;;;;;;;;;;;5088588;28;1014;-61
2021/03/13 13:57:17;;;;;;;;;;;;;;;;;;5076670;28;1380;-60
2021/03/13 13:59:43;;;;;;;;;;;;;;;;;;5047464;28;1914;-60
2021/03/13 14:02:09;;;;;;;;;;;;;;;;;;5047047;28;1183;-60
2021/03/13 14:04:34;;;;;;;;;;;;;;;;;;5047276;28;808;-60
2021/03/13 14:06:59;;;;;;;;;;;;;;;;;;5047451;28;851;-60
2021/03/13 14:09:25;;;;;;;;;;;;;;;;;;5047702;28;901;-60
2021/03/13 14:11:50;;;;;;;;;;;;;;;;;;5048244;28;835;-60
2021/03/13 14:14:16;;;;;;;;;;;;;;;;;;5048369;28;883;-60
2021/03/13 14:16:41;;;;;;;;;;;;;;;;;;5048381;28;811;-60
2021/03/13 14:19:06;;;;;;;;;;;;;;;;;;5047941;28;815;-60
2021/03/13 14:21:32;;;;;;;;;;;;;;;;;;5047856;28;1909;-60
2021/03/13 14:23:57;;;;;;;;;;;;;;;;;;5047806;28;827;-60
2021/03/13 14:26:24;;;;;;;;;;;;;;;;;;5047373;28;886;-60
2021/03/13 14:28:50;;;;;;;;;;;;;;;;;;5047559;28;847;-60
2021/03/13 14:31:16;;;;;;;;;;;;;;;;;;5048030;28;889;-60
2021/03/13 14:33:41;;;;;;;;;;;;;;;;;;5047893;28;811;-59
2021/03/13 14:36:07;;;;;;;;;;;;;;;;;;5065058;28;1503;-60
2021/03/13 14:38:32;;;;;;;;;;;;;;;;;;5066411;28;1149;-60
2021/03/13 14:40:58;;;;;;;;;;;;;;;;;;5066041;28;1965;-60
2021/03/13 14:43:23;;;;;;;;;;;;;;;;;;5069239;28;1146;-60
2021/03/13 14:45:49;;;;;;;;;;;;;;;;;;5067797;28;831;-59
2021/03/13 14:48:16;;;;;;;;;;;;;;;;;;5075842;28;1229;-60
2021/03/13 14:50:41;;;;;;;;;;;;;;;;;;5078017;28;1397;-64
2021/03/13 14:53:07;;;;;;;;;;;;;;;;;;5077054;28;1205;-60
2021/03/13 14:55:32;;;;;;;;;;;;;;;;;;5087695;28;874;-60
2021/03/13 14:57:58;;;;;;;;;;;;;;;;;;5087202;28;815;-60
2021/03/13 15:00:25;;;;;;;;;;;;;;;;;;5080655;28;1901;-60
2021/03/13 15:02:50;;;;;;;;;;;;;;;;;;5067404;28;835;-60
2021/03/13 15:05:16;;;;;;;;;;;;;;;;;;5056131;28;882;-60
2021/03/13 15:07:42;;;;;;;;;;;;;;;;;;5047536;28;819;-60
2021/03/13 15:10:09;;;;;;;;;;;;;;;;;;5046884;28;839;-60
2021/03/13 15:12:34;;;;;;;;;;;;;;;;;;5046679;28;772;-60
2021/03/13 15:15:00;;;;;;;;;;;;;;;;;;5046470;28;918;-60
2021/03/13 15:17:25;;;;;;;;;;;;;;;;;;5046969;28;815;-60
2021/03/13 15:19:51;;;;;;;;;;;;;;;;;;5046978;28;1898;-60
2021/03/13 15:22:16;;;;;;;;;;;;;;;;;;5047663;28;859;-60
2021/03/13 15:24:42;;;;;;;;;;;;;;;;;;5046609;28;831;-60
2021/03/13 15:27:08;;;;;;;;;;;;;;;;;;5058979;28;1331;-60
2021/03/13 15:29:33;;;;;;;;;;;;;;;;;;5087078;28;882;-60
2021/03/13 15:31:59;;;;;;;;;;;;;;;;;;5086736;28;882;-60
2021/03/13 15:34:24;;;;;;;;;;;;;;;;;;5085361;28;827;-59
2021/03/13 15:36:50;;;;;;;;;;;;;;;;;;5086219;28;843;-59
2021/03/13 15:39:15;;;;;;;;;;;;;;;;;;5077836;28;1149;-60
2021/03/13 15:41:41;;;;;;;;;;;;;;;;;;5064749;28;1897;-59
2021/03/13 15:44:07;;;;;;;;;;;;;;;;;;5065207;28;1138;-60
2021/03/13 15:46:33;;;;;;;;;;;;;;;;;;5062896;28;1237;-60
2021/03/13 15:48:59;;;;;;;;;;;;;;;;;;5066032;28;898;-60
2021/03/13 15:51:25;;;;;;;;;;;;;;;;;;5069988;28;1429;-60
2021/03/13 15:53:50;;;;;;;;;;;;;;;;;;5086680;28;1006;-60
2021/03/13 15:56:16;;;;;;;;;;;;;;;;;;5087008;28;807;-60
2021/03/13 15:58:41;;;;;;;;;;;;;;;;;;5082255;28;1184;-60
2021/03/13 16:01:06;;;;;;;;;;;;;;;;;;5085367;28;1890;-60
2021/03/13 16:03:32;;;;;;;;;;;;;;;;;;5086073;28;851;-60
2021/03/13 16:05:59;;;;;;;;;;;;;;;;;;5084809;28;1208;-60
2021/03/13 16:08:24;;;;;;;;;;;;;;;;;;5086603;28;850;-60
2021/03/13 16:10:50;;;;;;;;;;;;;;;;;;5086669;28;875;-60
2021/03/13 16:13:15;;;;;;;;;;;;;;;;;;5087030;28;859;-59
2021/03/13 16:15:41;;;;;;;;;;;;;;;;;;5086243;28;811;-59
2021/03/13 16:18:06;;;;;;;;;;;;;;;;;;5086089;28;807;-59
2021/03/13 16:20:32;;;;;;;;;;;;;;;;;;5086024;28;1955;-59
2021/03/13 16:22:57;;;;;;;;;;;;;;;;;;5066233;28;1635;-59
2021/03/13 16:25:23;;;;;;;;;;;;;;;;;;5045681;28;870;-60
2021/03/13 16:27:48;;;;;;;;;;;;;;;;;;5046300;28;846;-59
2021/03/13 16:30:14;;;;;;;;;;;;;;;;;;5045940;28;788;-60
2021/03/13 16:32:40;;;;;;;;;;;;;;;;;;5045451;28;917;-60
2021/03/13 16:35:06;;;;;;;;;;;;;;;;;;5045737;28;867;-60
2021/03/13 16:37:32;;;;;;;;;;;;;;;;;;5045743;28;890;-60
2021/03/13 16:39:57;;;;;;;;;;;;;;;;;;5109286;28;1893;-60
2021/03/13 16:42:23;;;;;;;;;;;;;;;;;;5086212;28;909;-60
2021/03/13 16:44:48;;;;;;;;;;;;;;;;;;5086963;28;783;-60
2021/03/13 16:47:13;;;;;;;;;;;;;;;;;;5085774;28;1326;-60
2021/03/13 16:49:39;;;;;;;;;;;;;;;;;;5071734;28;1621;-60
2021/03/13 16:52:06;;;;;;;;;;;;;;;;;;5053249;28;1696;-59
2021/03/13 16:54:31;;;;;;;;;;;;;;;;;;5066431;28;1581;-60
2021/03/13 16:56:57;;;;;;;;;;;;;;;;;;5047372;28;1611;-60
2021/03/13 16:59:22;;;;;;;;;;;;;;;;;;5046224;28;1608;-60
2021/03/13 17:01:47;;;;;;;;;;;;;;;;;;5066067;28;1991;-60
2021/03/13 17:04:14;;;;;;;;;;;;;;;;;;5065183;28;901;-59
2021/03/13 17:06:39;;;;;;;;;;;;;;;;;;5067845;28;1281;-60
2021/03/13 17:09:05;;;;;;;;;;;;;;;;;;5073533;28;1759;-60